sensor_id;sensor_type;location;lat;lon;timestamp;P1;durP1;ratioP1;P2;durP2;ratioP2
27889;SDS011;15238;49.082;9.102;2022-12-07T00:00:24;8.85;;;5.85;;
27889;SDS011;15238;49.082;9.102;2022-12-07T00:02:24;8.38;;;5.60;;
27889;SDS011;15238;49.082;9.102;2022-12-07T00:04:25;8.75;;;5.53;;
27889;SDS011;15238;49.082;9.102;2022-12-07T00:06:25;9.43;;;5.65;;
27889;SDS011;15238;49.082;9.102;2022-12-07T00:08:27;8.70;;;6.05;;
27889;SDS011;15238;49.082;9.102;2022-12-07T00:10:27;12.27;;;6.28;;
27889;SDS011;15238;49.082;9.102;2022-12-07T00:12:28;9.50;;;6.20;;
27889;SDS011;15238;49.082;9.102;2022-12-07T00:14:28;8.90;;;6.00;;
27889;SDS011;15238;49.082;9.102;2022-12-07T00:16:29;10.52;;;5.93;;
27889;SDS011;15238;49.082;9.102;2022-12-07T00:18:31;8.80;;;6.00;;
27889;SDS011;15238;49.082;9.102;2022-12-07T00:20:32;9.85;;;5.65;;
27889;SDS011;15238;49.082;9.102;2022-12-07T00:22:33;11.02;;;6.47;;
27889;SDS011;15238;49.082;9.102;2022-12-07T00:24:33;9.10;;;5.85;;
27889;SDS011;15238;49.082;9.102;2022-12-07T00:26:35;10.77;;;5.97;;
27889;SDS011;15238;49.082;9.102;2022-12-07T00:28:37;9.07;;;5.40;;
27889;SDS011;15238;49.082;9.102;2022-12-07T00:30:38;9.95;;;6.18;;
27889;SDS011;15238;49.082;9.102;2022-12-07T00:32:39;9.70;;;6.45;;
27889;SDS011;15238;49.082;9.102;2022-12-07T00:34:39;9.00;;;5.80;;
27889;SDS011;15238;49.082;9.102;2022-12-07T00:36:40;11.23;;;6.30;;
27889;SDS011;15238;49.082;9.102;2022-12-07T00:38:41;8.55;;;5.68;;
27889;SDS011;15238;49.082;9.102;2022-12-07T00:40:41;10.65;;;6.28;;
27889;SDS011;15238;49.082;9.102;2022-12-07T00:42:42;9.57;;;6.15;;
27889;SDS011;15238;49.082;9.102;2022-12-07T00:44:42;8.40;;;6.00;;
27889;SDS011;15238;49.082;9.102;2022-12-07T00:46:43;8.38;;;6.03;;
27889;SDS011;15238;49.082;9.102;2022-12-07T00:48:45;8.07;;;5.47;;
27889;SDS011;15238;49.082;9.102;2022-12-07T00:50:46;8.55;;;6.00;;
27889;SDS011;15238;49.082;9.102;2022-12-07T00:52:47;8.98;;;5.80;;
27889;SDS011;15238;49.082;9.102;2022-12-07T00:54:48;7.82;;;5.75;;
27889;SDS011;15238;49.082;9.102;2022-12-07T00:56:48;9.32;;;6.20;;
27889;SDS011;15238;49.082;9.102;2022-12-07T00:58:51;9.55;;;6.35;;
27889;SDS011;15238;49.082;9.102;2022-12-07T01:01:00;9.02;;;5.82;;
27889;SDS011;15238;49.082;9.102;2022-12-07T01:03:02;10.25;;;6.68;;
27889;SDS011;15238;49.082;9.102;2022-12-07T01:05:03;10.15;;;6.00;;
27889;SDS011;15238;49.082;9.102;2022-12-07T01:07:04;8.82;;;6.00;;
27889;SDS011;15238;49.082;9.102;2022-12-07T01:09:05;9.40;;;6.18;;
27889;SDS011;15238;49.082;9.102;2022-12-07T01:11:07;8.55;;;5.65;;
27889;SDS011;15238;49.082;9.102;2022-12-07T01:13:09;8.02;;;5.70;;
27889;SDS011;15238;49.082;9.102;2022-12-07T01:15:10;9.75;;;6.65;;
27889;SDS011;15238;49.082;9.102;2022-12-07T01:17:11;12.75;;;6.22;;
27889;SDS011;15238;49.082;9.102;2022-12-07T01:19:11;9.00;;;6.70;;
27889;SDS011;15238;49.082;9.102;2022-12-07T01:21:13;8.98;;;6.30;;
27889;SDS011;15238;49.082;9.102;2022-12-07T01:23:14;9.10;;;6.15;;
27889;SDS011;15238;49.082;9.102;2022-12-07T01:25:14;9.77;;;6.78;;
27889;SDS011;15238;49.082;9.102;2022-12-07T01:27:15;10.82;;;6.82;;
27889;SDS011;15238;49.082;9.102;2022-12-07T01:29:16;10.75;;;7.18;;
27889;SDS011;15238;49.082;9.102;2022-12-07T01:31:17;12.43;;;7.55;;
27889;SDS011;15238;49.082;9.102;2022-12-07T01:33:19;10.07;;;7.22;;
27889;SDS011;15238;49.082;9.102;2022-12-07T01:35:20;14.13;;;8.30;;
27889;SDS011;15238;49.082;9.102;2022-12-07T01:37:20;13.05;;;8.15;;
27889;SDS011;15238;49.082;9.102;2022-12-07T01:39:21;11.38;;;7.40;;
27889;SDS011;15238;49.082;9.102;2022-12-07T01:41:22;14.77;;;8.18;;
27889;SDS011;15238;49.082;9.102;2022-12-07T01:43:25;14.73;;;8.38;;
27889;SDS011;15238;49.082;9.102;2022-12-07T01:47:36;12.85;;;8.40;;
27889;SDS011;15238;49.082;9.102;2022-12-07T01:49:39;13.27;;;8.35;;
27889;SDS011;15238;49.082;9.102;2022-12-07T01:51:43;12.52;;;8.07;;
27889;SDS011;15238;49.082;9.102;2022-12-07T01:53:46;14.65;;;8.80;;
27889;SDS011;15238;49.082;9.102;2022-12-07T01:55:47;13.57;;;8.88;;
27889;SDS011;15238;49.082;9.102;2022-12-07T01:57:52;13.02;;;8.73;;
27889;SDS011;15238;49.082;9.102;2022-12-07T01:59:54;12.77;;;8.60;;
27889;SDS011;15238;49.082;9.102;2022-12-07T02:01:56;14.63;;;9.43;;
27889;SDS011;15238;49.082;9.102;2022-12-07T02:03:57;13.65;;;8.82;;
27889;SDS011;15238;49.082;9.102;2022-12-07T02:05:58;15.55;;;9.10;;
27889;SDS011;15238;49.082;9.102;2022-12-07T02:08:00;15.07;;;9.02;;
27889;SDS011;15238;49.082;9.102;2022-12-07T02:10:15;16.98;;;8.85;;
27889;SDS011;15238;49.082;9.102;2022-12-07T02:12:17;16.15;;;9.43;;
27889;SDS011;15238;49.082;9.102;2022-12-07T02:14:18;14.35;;;9.40;;
27889;SDS011;15238;49.082;9.102;2022-12-07T02:23:13;14.27;;;9.00;;
27889;SDS011;15238;49.082;9.102;2022-12-07T02:28:02;13.80;;;8.77;;
27889;SDS011;15238;49.082;9.102;2022-12-07T02:32:15;12.18;;;8.32;;
27889;SDS011;15238;49.082;9.102;2022-12-07T02:34:28;15.45;;;8.95;;
27889;SDS011;15238;49.082;9.102;2022-12-07T02:36:53;15.32;;;9.02;;
27889;SDS011;15238;49.082;9.102;2022-12-07T02:39:06;14.88;;;9.02;;
27889;SDS011;15238;49.082;9.102;2022-12-07T02:41:30;17.80;;;9.75;;
27889;SDS011;15238;49.082;9.102;2022-12-07T02:43:40;15.35;;;9.15;;
27889;SDS011;15238;49.082;9.102;2022-12-07T02:45:45;13.30;;;8.60;;
27889;SDS011;15238;49.082;9.102;2022-12-07T02:47:49;14.50;;;9.38;;
27889;SDS011;15238;49.082;9.102;2022-12-07T02:49:52;18.08;;;9.27;;
27889;SDS011;15238;49.082;9.102;2022-12-07T02:51:53;13.60;;;8.75;;
27889;SDS011;15238;49.082;9.102;2022-12-07T02:53:54;12.48;;;7.88;;
27889;SDS011;15238;49.082;9.102;2022-12-07T02:55:54;13.07;;;8.30;;
27889;SDS011;15238;49.082;9.102;2022-12-07T03:00:09;14.10;;;7.97;;
27889;SDS011;15238;49.082;9.102;2022-12-07T03:07:11;14.07;;;8.30;;
27889;SDS011;15238;49.082;9.102;2022-12-07T03:09:21;12.63;;;8.23;;
27889;SDS011;15238;49.082;9.102;2022-12-07T03:11:45;14.25;;;8.82;;
27889;SDS011;15238;49.082;9.102;2022-12-07T03:18:17;12.07;;;7.60;;
27889;SDS011;15238;49.082;9.102;2022-12-07T03:20:21;11.32;;;7.97;;
27889;SDS011;15238;49.082;9.102;2022-12-07T03:22:24;10.65;;;7.60;;
27889;SDS011;15238;49.082;9.102;2022-12-07T03:24:31;11.57;;;7.32;;
27889;SDS011;15238;49.082;9.102;2022-12-07T03:26:37;10.10;;;7.32;;
27889;SDS011;15238;49.082;9.102;2022-12-07T03:28:42;10.45;;;7.07;;
27889;SDS011;15238;49.082;9.102;2022-12-07T03:33:24;14.02;;;8.60;;
27889;SDS011;15238;49.082;9.102;2022-12-07T03:35:33;11.70;;;8.00;;
27889;SDS011;15238;49.082;9.102;2022-12-07T03:37:43;12.35;;;7.70;;
27889;SDS011;15238;49.082;9.102;2022-12-07T03:42:13;11.10;;;7.40;;
27889;SDS011;15238;49.082;9.102;2022-12-07T03:44:14;11.45;;;7.88;;
27889;SDS011;15238;49.082;9.102;2022-12-07T03:46:17;13.02;;;8.23;;
27889;SDS011;15238;49.082;9.102;2022-12-07T03:48:20;10.48;;;7.40;;
27889;SDS011;15238;49.082;9.102;2022-12-07T03:52:39;12.45;;;8.35;;
27889;SDS011;15238;49.082;9.102;2022-12-07T03:54:52;10.10;;;7.28;;
27889;SDS011;15238;49.082;9.102;2022-12-07T03:57:20;16.73;;;8.75;;
27889;SDS011;15238;49.082;9.102;2022-12-07T03:59:23;13.93;;;8.07;;
27889;SDS011;15238;49.082;9.102;2022-12-07T04:01:25;12.40;;;7.82;;
27889;SDS011;15238;49.082;9.102;2022-12-07T04:03:26;13.90;;;7.95;;
27889;SDS011;15238;49.082;9.102;2022-12-07T04:05:26;12.10;;;8.02;;
27889;SDS011;15238;49.082;9.102;2022-12-07T04:07:27;12.38;;;8.18;;
27889;SDS011;15238;49.082;9.102;2022-12-07T04:09:28;10.32;;;7.78;;
27889;SDS011;15238;49.082;9.102;2022-12-07T04:11:28;12.77;;;7.80;;
27889;SDS011;15238;49.082;9.102;2022-12-07T04:13:29;13.38;;;8.30;;
27889;SDS011;15238;49.082;9.102;2022-12-07T04:15:30;11.10;;;7.28;;
27889;SDS011;15238;49.082;9.102;2022-12-07T04:17:30;13.35;;;7.97;;
27889;SDS011;15238;49.082;9.102;2022-12-07T04:19:32;12.68;;;7.80;;
27889;SDS011;15238;49.082;9.102;2022-12-07T04:21:33;12.13;;;7.70;;
27889;SDS011;15238;49.082;9.102;2022-12-07T04:23:34;12.02;;;7.82;;
27889;SDS011;15238;49.082;9.102;2022-12-07T04:25:34;13.45;;;7.97;;
27889;SDS011;15238;49.082;9.102;2022-12-07T04:27:35;12.30;;;8.30;;
27889;SDS011;15238;49.082;9.102;2022-12-07T04:29:35;12.50;;;7.78;;
27889;SDS011;15238;49.082;9.102;2022-12-07T04:31:36;12.30;;;7.55;;
27889;SDS011;15238;49.082;9.102;2022-12-07T04:33:37;10.93;;;7.70;;
27889;SDS011;15238;49.082;9.102;2022-12-07T04:35:37;15.30;;;8.02;;
27889;SDS011;15238;49.082;9.102;2022-12-07T04:37:38;12.45;;;8.50;;
27889;SDS011;15238;49.082;9.102;2022-12-07T04:39:39;15.02;;;8.05;;
27889;SDS011;15238;49.082;9.102;2022-12-07T04:41:40;12.93;;;7.65;;
27889;SDS011;15238;49.082;9.102;2022-12-07T04:43:40;13.52;;;8.23;;
27889;SDS011;15238;49.082;9.102;2022-12-07T04:45:45;10.93;;;7.32;;
27889;SDS011;15238;49.082;9.102;2022-12-07T04:47:48;12.70;;;8.35;;
27889;SDS011;15238;49.082;9.102;2022-12-07T04:49:49;11.73;;;7.78;;
27889;SDS011;15238;49.082;9.102;2022-12-07T04:51:49;13.00;;;7.80;;
27889;SDS011;15238;49.082;9.102;2022-12-07T04:53:50;21.98;;;8.75;;
27889;SDS011;15238;49.082;9.102;2022-12-07T04:55:51;10.30;;;7.25;;
27889;SDS011;15238;49.082;9.102;2022-12-07T04:57:52;12.40;;;8.00;;
27889;SDS011;15238;49.082;9.102;2022-12-07T04:59:52;11.65;;;7.35;;
27889;SDS011;15238;49.082;9.102;2022-12-07T05:01:53;12.85;;;7.63;;
27889;SDS011;15238;49.082;9.102;2022-12-07T05:03:53;11.73;;;8.13;;
27889;SDS011;15238;49.082;9.102;2022-12-07T05:05:54;12.60;;;7.22;;
27889;SDS011;15238;49.082;9.102;2022-12-07T05:07:54;12.18;;;8.00;;
27889;SDS011;15238;49.082;9.102;2022-12-07T05:09:55;13.95;;;7.88;;
27889;SDS011;15238;49.082;9.102;2022-12-07T05:11:56;12.32;;;8.27;;
27889;SDS011;15238;49.082;9.102;2022-12-07T05:13:56;14.02;;;7.95;;
27889;SDS011;15238;49.082;9.102;2022-12-07T05:15:57;12.35;;;8.25;;
27889;SDS011;15238;49.082;9.102;2022-12-07T05:17:58;12.18;;;8.13;;
27889;SDS011;15238;49.082;9.102;2022-12-07T05:19:58;16.70;;;7.60;;
27889;SDS011;15238;49.082;9.102;2022-12-07T05:21:59;12.98;;;8.48;;
27889;SDS011;15238;49.082;9.102;2022-12-07T05:23:59;14.23;;;7.90;;
27889;SDS011;15238;49.082;9.102;2022-12-07T05:26:00;13.23;;;9.07;;
27889;SDS011;15238;49.082;9.102;2022-12-07T05:28:00;13.40;;;8.63;;
27889;SDS011;15238;49.082;9.102;2022-12-07T05:30:01;13.07;;;8.30;;
27889;SDS011;15238;49.082;9.102;2022-12-07T05:32:02;16.70;;;9.25;;
27889;SDS011;15238;49.082;9.102;2022-12-07T05:34:02;14.55;;;8.00;;
27889;SDS011;15238;49.082;9.102;2022-12-07T05:36:03;14.35;;;8.20;;
27889;SDS011;15238;49.082;9.102;2022-12-07T05:38:05;12.30;;;8.27;;
27889;SDS011;15238;49.082;9.102;2022-12-07T05:40:06;14.07;;;8.15;;
27889;SDS011;15238;49.082;9.102;2022-12-07T05:42:08;13.40;;;8.50;;
27889;SDS011;15238;49.082;9.102;2022-12-07T05:44:13;13.00;;;8.50;;
27889;SDS011;15238;49.082;9.102;2022-12-07T05:46:13;13.80;;;8.05;;
27889;SDS011;15238;49.082;9.102;2022-12-07T05:48:14;14.80;;;8.85;;
27889;SDS011;15238;49.082;9.102;2022-12-07T05:50:14;14.65;;;8.95;;
27889;SDS011;15238;49.082;9.102;2022-12-07T05:52:15;14.32;;;8.07;;
27889;SDS011;15238;49.082;9.102;2022-12-07T05:54:16;16.75;;;9.63;;
27889;SDS011;15238;49.082;9.102;2022-12-07T05:56:16;14.27;;;8.63;;
27889;SDS011;15238;49.082;9.102;2022-12-07T05:58:17;13.45;;;8.73;;
27889;SDS011;15238;49.082;9.102;2022-12-07T06:00:36;14.18;;;8.40;;
27889;SDS011;15238;49.082;9.102;2022-12-07T06:02:37;15.55;;;8.90;;
27889;SDS011;15238;49.082;9.102;2022-12-07T06:04:38;16.40;;;8.88;;
27889;SDS011;15238;49.082;9.102;2022-12-07T06:06:45;10.77;;;7.40;;
27889;SDS011;15238;49.082;9.102;2022-12-07T06:08:45;14.40;;;8.23;;
27889;SDS011;15238;49.082;9.102;2022-12-07T06:10:46;10.57;;;7.45;;
27889;SDS011;15238;49.082;9.102;2022-12-07T06:13:08;12.25;;;6.90;;
27889;SDS011;15238;49.082;9.102;2022-12-07T06:15:09;10.48;;;7.13;;
27889;SDS011;15238;49.082;9.102;2022-12-07T06:17:12;11.45;;;7.40;;
27889;SDS011;15238;49.082;9.102;2022-12-07T06:19:14;11.93;;;7.80;;
27889;SDS011;15238;49.082;9.102;2022-12-07T06:21:14;10.48;;;6.72;;
27889;SDS011;15238;49.082;9.102;2022-12-07T06:23:15;10.25;;;7.05;;
27889;SDS011;15238;49.082;9.102;2022-12-07T06:25:15;10.50;;;6.53;;
27889;SDS011;15238;49.082;9.102;2022-12-07T06:27:16;10.10;;;6.72;;
27889;SDS011;15238;49.082;9.102;2022-12-07T06:29:17;9.35;;;6.32;;
27889;SDS011;15238;49.082;9.102;2022-12-07T06:31:20;10.75;;;6.97;;
27889;SDS011;15238;49.082;9.102;2022-12-07T06:33:21;12.30;;;7.95;;
27889;SDS011;15238;49.082;9.102;2022-12-07T06:35:21;11.20;;;7.10;;
27889;SDS011;15238;49.082;9.102;2022-12-07T06:37:22;11.10;;;6.07;;
27889;SDS011;15238;49.082;9.102;2022-12-07T06:39:23;10.40;;;6.95;;
27889;SDS011;15238;49.082;9.102;2022-12-07T06:41:25;9.52;;;6.53;;
27889;SDS011;15238;49.082;9.102;2022-12-07T06:43:26;10.68;;;6.75;;
27889;SDS011;15238;49.082;9.102;2022-12-07T06:45:27;8.18;;;5.93;;
27889;SDS011;15238;49.082;9.102;2022-12-07T06:47:27;9.88;;;7.03;;
27889;SDS011;15238;49.082;9.102;2022-12-07T06:49:28;9.73;;;7.03;;
27889;SDS011;15238;49.082;9.102;2022-12-07T06:51:28;10.27;;;6.75;;
27889;SDS011;15238;49.082;9.102;2022-12-07T06:53:29;9.90;;;5.40;;
27889;SDS011;15238;49.082;9.102;2022-12-07T06:55:30;10.82;;;6.50;;
27889;SDS011;15238;49.082;9.102;2022-12-07T06:57:30;9.25;;;6.10;;
27889;SDS011;15238;49.082;9.102;2022-12-07T06:59:31;13.13;;;7.75;;
27889;SDS011;15238;49.082;9.102;2022-12-07T07:01:31;13.43;;;7.72;;
27889;SDS011;15238;49.082;9.102;2022-12-07T07:03:33;17.70;;;7.63;;
27889;SDS011;15238;49.082;9.102;2022-12-07T07:05:34;11.38;;;7.13;;
27889;SDS011;15238;49.082;9.102;2022-12-07T07:07:34;11.52;;;7.45;;
27889;SDS011;15238;49.082;9.102;2022-12-07T07:09:35;11.25;;;7.05;;
27889;SDS011;15238;49.082;9.102;2022-12-07T07:11:35;10.55;;;6.85;;
27889;SDS011;15238;49.082;9.102;2022-12-07T07:13:36;12.07;;;6.22;;
27889;SDS011;15238;49.082;9.102;2022-12-07T07:15:37;10.60;;;7.25;;
27889;SDS011;15238;49.082;9.102;2022-12-07T07:17:38;10.50;;;7.03;;
27889;SDS011;15238;49.082;9.102;2022-12-07T07:19:39;9.32;;;6.18;;
27889;SDS011;15238;49.082;9.102;2022-12-07T07:21:39;11.40;;;6.78;;
27889;SDS011;15238;49.082;9.102;2022-12-07T07:23:40;11.07;;;5.97;;
27889;SDS011;15238;49.082;9.102;2022-12-07T07:25:40;11.45;;;6.55;;
27889;SDS011;15238;49.082;9.102;2022-12-07T07:27:41;10.60;;;6.28;;
27889;SDS011;15238;49.082;9.102;2022-12-07T07:29:42;11.35;;;6.53;;
27889;SDS011;15238;49.082;9.102;2022-12-07T07:31:42;10.10;;;6.55;;
27889;SDS011;15238;49.082;9.102;2022-12-07T07:33:43;14.25;;;6.75;;
27889;SDS011;15238;49.082;9.102;2022-12-07T07:35:46;12.60;;;7.15;;
27889;SDS011;15238;49.082;9.102;2022-12-07T07:37:46;9.98;;;6.85;;
27889;SDS011;15238;49.082;9.102;2022-12-07T07:39:47;7.85;;;6.10;;
27889;SDS011;15238;49.082;9.102;2022-12-07T07:41:47;9.57;;;6.45;;
27889;SDS011;15238;49.082;9.102;2022-12-07T07:43:48;12.00;;;6.93;;
27889;SDS011;15238;49.082;9.102;2022-12-07T07:45:49;12.82;;;6.93;;
27889;SDS011;15238;49.082;9.102;2022-12-07T07:47:49;9.10;;;5.90;;
27889;SDS011;15238;49.082;9.102;2022-12-07T07:49:50;9.63;;;6.25;;
27889;SDS011;15238;49.082;9.102;2022-12-07T07:51:51;9.02;;;6.22;;
27889;SDS011;15238;49.082;9.102;2022-12-07T07:53:51;9.05;;;6.45;;
27889;SDS011;15238;49.082;9.102;2022-12-07T07:55:54;10.77;;;6.03;;
27889;SDS011;15238;49.082;9.102;2022-12-07T07:57:55;8.48;;;5.88;;
27889;SDS011;15238;49.082;9.102;2022-12-07T07:59:55;7.85;;;5.40;;
27889;SDS011;15238;49.082;9.102;2022-12-07T08:01:56;9.55;;;6.03;;
27889;SDS011;15238;49.082;9.102;2022-12-07T08:03:56;10.95;;;7.05;;
27889;SDS011;15238;49.082;9.102;2022-12-07T08:05:57;16.48;;;9.93;;
27889;SDS011;15238;49.082;9.102;2022-12-07T08:07:58;17.98;;;10.93;;
27889;SDS011;15238;49.082;9.102;2022-12-07T08:09:58;14.70;;;7.97;;
27889;SDS011;15238;49.082;9.102;2022-12-07T08:11:59;13.43;;;9.00;;
27889;SDS011;15238;49.082;9.102;2022-12-07T08:14:00;19.67;;;12.60;;
27889;SDS011;15238;49.082;9.102;2022-12-07T08:16:04;12.50;;;7.90;;
27889;SDS011;15238;49.082;9.102;2022-12-07T08:18:06;16.65;;;9.20;;
27889;SDS011;15238;49.082;9.102;2022-12-07T08:20:07;13.30;;;8.40;;
27889;SDS011;15238;49.082;9.102;2022-12-07T08:22:08;9.45;;;6.97;;
27889;SDS011;15238;49.082;9.102;2022-12-07T08:24:08;9.85;;;5.68;;
27889;SDS011;15238;49.082;9.102;2022-12-07T08:26:10;10.77;;;6.60;;
27889;SDS011;15238;49.082;9.102;2022-12-07T08:28:13;9.88;;;6.65;;
27889;SDS011;15238;49.082;9.102;2022-12-07T08:30:15;9.40;;;6.13;;
27889;SDS011;15238;49.082;9.102;2022-12-07T08:32:15;10.52;;;5.78;;
27889;SDS011;15238;49.082;9.102;2022-12-07T08:34:16;8.65;;;5.15;;
27889;SDS011;15238;49.082;9.102;2022-12-07T08:36:17;8.73;;;5.50;;
27889;SDS011;15238;49.082;9.102;2022-12-07T08:38:18;11.35;;;7.18;;
27889;SDS011;15238;49.082;9.102;2022-12-07T08:40:18;7.65;;;5.35;;
27889;SDS011;15238;49.082;9.102;2022-12-07T08:42:20;7.82;;;5.47;;
27889;SDS011;15238;49.082;9.102;2022-12-07T08:44:23;9.05;;;4.88;;
27889;SDS011;15238;49.082;9.102;2022-12-07T08:48:30;7.55;;;4.63;;
27889;SDS011;15238;49.082;9.102;2022-12-07T08:50:31;8.45;;;5.28;;
27889;SDS011;15238;49.082;9.102;2022-12-07T08:52:33;8.90;;;5.20;;
27889;SDS011;15238;49.082;9.102;2022-12-07T08:54:35;16.50;;;9.32;;
27889;SDS011;15238;49.082;9.102;2022-12-07T08:56:37;12.82;;;7.90;;
27889;SDS011;15238;49.082;9.102;2022-12-07T08:58:38;14.18;;;8.40;;
27889;SDS011;15238;49.082;9.102;2022-12-07T09:00:39;12.43;;;7.15;;
27889;SDS011;15238;49.082;9.102;2022-12-07T09:02:40;13.70;;;6.88;;
27889;SDS011;15238;49.082;9.102;2022-12-07T09:04:40;7.63;;;4.82;;
27889;SDS011;15238;49.082;9.102;2022-12-07T09:06:41;9.27;;;5.28;;
27889;SDS011;15238;49.082;9.102;2022-12-07T09:08:42;11.23;;;6.10;;
27889;SDS011;15238;49.082;9.102;2022-12-07T09:10:46;10.38;;;6.07;;
27889;SDS011;15238;49.082;9.102;2022-12-07T09:12:47;8.10;;;5.70;;
27889;SDS011;15238;49.082;9.102;2022-12-07T09:14:48;9.82;;;6.82;;
27889;SDS011;15238;49.082;9.102;2022-12-07T09:16:48;9.13;;;5.70;;
27889;SDS011;15238;49.082;9.102;2022-12-07T09:18:49;9.88;;;5.53;;
27889;SDS011;15238;49.082;9.102;2022-12-07T09:20:50;9.85;;;5.28;;
27889;SDS011;15238;49.082;9.102;2022-12-07T09:22:51;9.55;;;5.22;;
27889;SDS011;15238;49.082;9.102;2022-12-07T09:24:51;8.05;;;4.82;;
27889;SDS011;15238;49.082;9.102;2022-12-07T09:26:52;7.78;;;5.13;;
27889;SDS011;15238;49.082;9.102;2022-12-07T09:28:52;9.13;;;5.45;;
27889;SDS011;15238;49.082;9.102;2022-12-07T09:30:53;7.95;;;5.10;;
27889;SDS011;15238;49.082;9.102;2022-12-07T09:32:54;9.10;;;5.40;;
27889;SDS011;15238;49.082;9.102;2022-12-07T09:34:56;10.63;;;4.85;;
27889;SDS011;15238;49.082;9.102;2022-12-07T09:36:57;7.50;;;4.57;;
27889;SDS011;15238;49.082;9.102;2022-12-07T09:38:58;11.57;;;4.70;;
27889;SDS011;15238;49.082;9.102;2022-12-07T09:41:03;7.15;;;5.03;;
27889;SDS011;15238;49.082;9.102;2022-12-07T09:43:11;9.18;;;5.07;;
27889;SDS011;15238;49.082;9.102;2022-12-07T09:45:15;6.80;;;4.32;;
27889;SDS011;15238;49.082;9.102;2022-12-07T09:47:27;9.35;;;4.82;;
27889;SDS011;15238;49.082;9.102;2022-12-07T09:49:30;6.65;;;4.55;;
27889;SDS011;15238;49.082;9.102;2022-12-07T09:51:31;7.90;;;5.00;;
27889;SDS011;15238;49.082;9.102;2022-12-07T09:53:33;7.25;;;4.60;;
27889;SDS011;15238;49.082;9.102;2022-12-07T09:55:37;8.98;;;4.70;;
27889;SDS011;15238;49.082;9.102;2022-12-07T09:57:38;13.75;;;7.82;;
27889;SDS011;15238;49.082;9.102;2022-12-07T09:59:39;12.15;;;7.90;;
27889;SDS011;15238;49.082;9.102;2022-12-07T10:01:42;10.48;;;6.85;;
27889;SDS011;15238;49.082;9.102;2022-12-07T10:03:49;8.93;;;6.13;;
27889;SDS011;15238;49.082;9.102;2022-12-07T10:05:50;8.38;;;5.47;;
27889;SDS011;15238;49.082;9.102;2022-12-07T10:07:52;7.78;;;4.95;;
27889;SDS011;15238;49.082;9.102;2022-12-07T10:09:53;7.15;;;4.43;;
27889;SDS011;15238;49.082;9.102;2022-12-07T10:12:00;8.32;;;4.78;;
27889;SDS011;15238;49.082;9.102;2022-12-07T10:14:10;7.63;;;4.32;;
27889;SDS011;15238;49.082;9.102;2022-12-07T10:18:27;8.57;;;4.78;;
27889;SDS011;15238;49.082;9.102;2022-12-07T10:20:37;8.43;;;5.38;;
27889;SDS011;15238;49.082;9.102;2022-12-07T10:22:38;8.65;;;6.03;;
27889;SDS011;15238;49.082;9.102;2022-12-07T10:24:53;17.27;;;7.63;;
27889;SDS011;15238;49.082;9.102;2022-12-07T10:26:53;17.25;;;9.20;;
27889;SDS011;15238;49.082;9.102;2022-12-07T10:28:55;26.90;;;12.10;;
27889;SDS011;15238;49.082;9.102;2022-12-07T10:31:02;16.02;;;7.82;;
27889;SDS011;15238;49.082;9.102;2022-12-07T10:33:36;16.52;;;7.63;;
27889;SDS011;15238;49.082;9.102;2022-12-07T10:35:48;13.50;;;7.28;;
27889;SDS011;15238;49.082;9.102;2022-12-07T10:37:49;14.93;;;7.53;;
27889;SDS011;15238;49.082;9.102;2022-12-07T10:39:54;14.10;;;7.38;;
27889;SDS011;15238;49.082;9.102;2022-12-07T10:41:57;8.02;;;4.88;;
27889;SDS011;15238;49.082;9.102;2022-12-07T10:43:59;9.32;;;5.75;;
27889;SDS011;15238;49.082;9.102;2022-12-07T10:50:55;12.02;;;7.35;;
27889;SDS011;15238;49.082;9.102;2022-12-07T11:00:44;10.50;;;6.25;;
27889;SDS011;15238;49.082;9.102;2022-12-07T11:07:22;9.98;;;5.65;;
27889;SDS011;15238;49.082;9.102;2022-12-07T11:12:05;8.85;;;5.32;;
27889;SDS011;15238;49.082;9.102;2022-12-07T11:14:31;16.65;;;8.32;;
27889;SDS011;15238;49.082;9.102;2022-12-07T11:16:45;17.48;;;8.90;;
27889;SDS011;15238;49.082;9.102;2022-12-07T11:21:30;14.18;;;8.63;;
27889;SDS011;15238;49.082;9.102;2022-12-07T11:23:49;16.33;;;9.02;;
27889;SDS011;15238;49.082;9.102;2022-12-07T11:30:33;16.48;;;8.80;;
27889;SDS011;15238;49.082;9.102;2022-12-07T11:35:14;8.82;;;5.82;;
27889;SDS011;15238;49.082;9.102;2022-12-07T11:37:38;14.77;;;6.93;;
27889;SDS011;15238;49.082;9.102;2022-12-07T11:39:43;12.65;;;6.60;;
27889;SDS011;15238;49.082;9.102;2022-12-07T11:41:52;14.07;;;7.30;;
27889;SDS011;15238;49.082;9.102;2022-12-07T11:46:19;16.13;;;9.07;;
27889;SDS011;15238;49.082;9.102;2022-12-07T11:48:30;11.60;;;7.47;;
27889;SDS011;15238;49.082;9.102;2022-12-07T11:50:57;10.30;;;6.57;;
27889;SDS011;15238;49.082;9.102;2022-12-07T11:55:02;12.10;;;6.63;;
27889;SDS011;15238;49.082;9.102;2022-12-07T11:57:17;14.30;;;6.88;;
27889;SDS011;15238;49.082;9.102;2022-12-07T11:59:23;12.38;;;6.90;;
27889;SDS011;15238;49.082;9.102;2022-12-07T12:03:45;12.68;;;7.13;;
27889;SDS011;15238;49.082;9.102;2022-12-07T12:05:47;12.05;;;7.38;;
27889;SDS011;15238;49.082;9.102;2022-12-07T12:07:55;10.30;;;6.88;;
27889;SDS011;15238;49.082;9.102;2022-12-07T12:10:24;12.73;;;7.80;;
27889;SDS011;15238;49.082;9.102;2022-12-07T12:15:38;12.27;;;6.53;;
27889;SDS011;15238;49.082;9.102;2022-12-07T12:18:09;10.60;;;7.00;;
27889;SDS011;15238;49.082;9.102;2022-12-07T12:20:28;13.32;;;7.80;;
27889;SDS011;15238;49.082;9.102;2022-12-07T12:22:34;16.98;;;8.80;;
27889;SDS011;15238;49.082;9.102;2022-12-07T12:24:42;14.60;;;8.77;;
27889;SDS011;15238;49.082;9.102;2022-12-07T12:26:51;18.05;;;7.72;;
27889;SDS011;15238;49.082;9.102;2022-12-07T12:28:58;13.02;;;7.53;;
27889;SDS011;15238;49.082;9.102;2022-12-07T12:31:47;12.63;;;7.82;;
27889;SDS011;15238;49.082;9.102;2022-12-07T12:33:30;10.10;;;6.53;;
27889;SDS011;15238;49.082;9.102;2022-12-07T12:35:35;11.98;;;7.13;;
27889;SDS011;15238;49.082;9.102;2022-12-07T12:39:37;12.25;;;7.22;;
27889;SDS011;15238;49.082;9.102;2022-12-07T12:45:43;12.25;;;6.70;;
27889;SDS011;15238;49.082;9.102;2022-12-07T12:47:52;12.02;;;6.70;;
27889;SDS011;15238;49.082;9.102;2022-12-07T12:50:15;13.95;;;6.50;;
27889;SDS011;15238;49.082;9.102;2022-12-07T12:54:34;10.45;;;6.80;;
27889;SDS011;15238;49.082;9.102;2022-12-07T12:59:17;10.98;;;6.28;;
27889;SDS011;15238;49.082;9.102;2022-12-07T13:01:41;14.57;;;6.53;;
27889;SDS011;15238;49.082;9.102;2022-12-07T13:03:52;10.25;;;6.80;;
27889;SDS011;15238;49.082;9.102;2022-12-07T13:08:18;14.73;;;6.95;;
27889;SDS011;15238;49.082;9.102;2022-12-07T13:10:28;13.15;;;6.97;;
27889;SDS011;15238;49.082;9.102;2022-12-07T13:12:34;9.50;;;6.05;;
27889;SDS011;15238;49.082;9.102;2022-12-07T13:16:57;12.57;;;6.82;;
27889;SDS011;15238;49.082;9.102;2022-12-07T13:18:58;11.35;;;6.53;;
27889;SDS011;15238;49.082;9.102;2022-12-07T13:23:08;12.30;;;6.57;;
27889;SDS011;15238;49.082;9.102;2022-12-07T13:25:23;9.48;;;6.15;;
27889;SDS011;15238;49.082;9.102;2022-12-07T13:27:34;10.60;;;6.75;;
27889;SDS011;15238;49.082;9.102;2022-12-07T13:29:38;9.85;;;6.38;;
27889;SDS011;15238;49.082;9.102;2022-12-07T13:33:41;12.98;;;7.28;;
27889;SDS011;15238;49.082;9.102;2022-12-07T13:35:44;10.60;;;6.32;;
27889;SDS011;15238;49.082;9.102;2022-12-07T13:37:44;10.98;;;7.07;;
27889;SDS011;15238;49.082;9.102;2022-12-07T13:39:46;10.38;;;6.32;;
27889;SDS011;15238;49.082;9.102;2022-12-07T13:41:50;9.93;;;6.43;;
27889;SDS011;15238;49.082;9.102;2022-12-07T13:43:54;11.80;;;7.85;;
27889;SDS011;15238;49.082;9.102;2022-12-07T13:46:06;11.20;;;6.80;;
27889;SDS011;15238;49.082;9.102;2022-12-07T13:48:10;12.52;;;7.60;;
27889;SDS011;15238;49.082;9.102;2022-12-07T13:50:22;10.80;;;6.65;;
27889;SDS011;15238;49.082;9.102;2022-12-07T13:52:31;12.82;;;7.40;;